createdAt,value
2023-10-26T00:04:58.639Z,71
2023-10-26T00:09:58.394Z,71
2023-10-26T00:14:58.271Z,71
2023-10-26T00:19:58.499Z,71
2023-10-26T00:24:58.171Z,71
2023-10-26T00:29:58.357Z,71
2023-10-26T00:34:58.339Z,71
2023-10-26T00:39:58.478Z,71
2023-10-26T00:44:58.505Z,71
2023-10-26T00:49:58.831Z,71
2023-10-26T00:54:58.238Z,71
2023-10-26T00:59:58.145Z,71
2023-10-26T01:04:58.414Z,71
2023-10-26T01:09:58.200Z,71
2023-10-26T01:15:00.857Z,71
2023-10-26T01:19:58.592Z,71
2023-10-26T01:24:58.245Z,71
2023-10-26T01:29:58.332Z,71
2023-10-26T01:34:58.342Z,71
2023-10-26T01:39:58.285Z,71
2023-10-26T01:44:58.208Z,71
2023-10-26T01:49:58.180Z,71
2023-10-26T01:54:58.250Z,71
2023-10-26T01:59:58.454Z,71
2023-10-26T02:04:58.274Z,71
2023-10-26T02:09:58.162Z,71
2023-10-26T02:14:58.375Z,71
2023-10-26T02:19:58.349Z,71
2023-10-26T02:24:58.163Z,71
2023-10-26T02:29:58.404Z,71
2023-10-26T02:34:58.235Z,71
2023-10-26T02:39:58.079Z,71
2023-10-26T02:44:58.475Z,71
2023-10-26T02:49:58.186Z,75
2023-10-26T02:54:58.263Z,75
2023-10-26T02:59:58.356Z,75
2023-10-26T03:04:58.075Z,75
2023-10-26T03:09:58.703Z,75
2023-10-26T03:14:58.431Z,75
2023-10-26T03:19:58.297Z,75
2023-10-26T03:24:58.304Z,75
2023-10-26T03:29:58.248Z,75
2023-10-26T03:34:58.268Z,75
2023-10-26T03:39:58.094Z,75
2023-10-26T03:44:58.351Z,75
2023-10-26T03:49:58.415Z,75
2023-10-26T03:54:58.299Z,75
2023-10-26T03:59:58.209Z,75
2023-10-26T04:04:58.035Z,75
2023-10-26T04:09:58.082Z,75
2023-10-26T04:14:58.281Z,75
2023-10-26T04:19:58.005Z,75
2023-10-26T04:24:58.344Z,75
2023-10-26T04:29:58.389Z,75
2023-10-26T04:34:58.180Z,75
2023-10-26T04:39:58.129Z,75
2023-10-26T04:44:58.078Z,75
2023-10-26T04:49:58.202Z,75
2023-10-26T04:54:58.220Z,75
2023-10-26T04:59:58.241Z,75
2023-10-26T05:04:58.456Z,75
2023-10-26T05:09:59.052Z,75
2023-10-26T05:14:58.051Z,75
2023-10-26T05:19:58.289Z,75
2023-10-26T05:24:58.239Z,75
2023-10-26T05:29:57.979Z,75
2023-10-26T05:34:58.244Z,75
2023-10-26T05:39:58.307Z,75
2023-10-26T05:44:58.238Z,75
2023-10-26T05:49:57.944Z,75
2023-10-26T05:54:57.968Z,75
2023-10-26T05:59:58.494Z,75
2023-10-26T06:04:57.977Z,74
2023-10-26T06:09:58.185Z,74
2023-10-26T06:14:58.224Z,74
2023-10-26T06:19:58.249Z,74
2023-10-26T06:24:58.383Z,74
2023-10-26T06:29:58.320Z,74
2023-10-26T06:34:58.162Z,74
2023-10-26T06:39:58.139Z,74
2023-10-26T06:44:57.871Z,74
2023-10-26T06:49:58.413Z,74
2023-10-26T06:54:58.002Z,74
2023-10-26T06:59:58.693Z,74
2023-10-26T07:04:58.988Z,74
2023-10-26T07:09:57.933Z,74
2023-10-26T07:14:58.109Z,74
2023-10-26T07:19:57.944Z,74
2023-10-26T07:24:58.103Z,74
2023-10-26T07:29:57.826Z,74
2023-10-26T07:34:57.961Z,74
2023-10-26T07:40:27.559Z,74
2023-10-26T07:44:58.031Z,74
2023-10-26T07:49:58.223Z,74
2023-10-26T07:54:57.915Z,74
2023-10-26T07:59:58.199Z,74
2023-10-26T08:04:58.048Z,74
2023-10-26T08:09:58.273Z,73
2023-10-26T08:16:10.813Z,73
2023-10-26T08:20:05.972Z,73
2023-10-26T08:24:57.911Z,73
2023-10-26T08:29:57.992Z,73
2023-10-26T08:34:58.086Z,73
2023-10-26T08:39:57.963Z,73
2023-10-26T08:44:59.339Z,73
2023-10-26T08:50:14.900Z,73
2023-10-26T08:54:58.162Z,73
2023-10-26T08:59:58.024Z,73
2023-10-26T09:04:58.055Z,73
2023-10-26T09:09:57.863Z,73
2023-10-26T09:14:59.372Z,73
2023-10-26T09:19:57.934Z,73
2023-10-26T09:24:57.926Z,73
2023-10-26T09:29:57.863Z,73
2023-10-26T09:34:57.955Z,73
2023-10-26T09:40:14.763Z,73
2023-10-26T09:44:58.042Z,73
2023-10-26T09:49:58.478Z,73
2023-10-26T09:54:57.929Z,73
2023-10-26T10:00:00.552Z,73
2023-10-26T10:04:57.759Z,73
2023-10-26T10:10:06.639Z,73
2023-10-26T10:15:05.287Z,73
2023-10-26T10:19:58.295Z,73
2023-10-26T10:24:58.082Z,73
2023-10-26T10:29:57.760Z,73
2023-10-26T10:34:57.849Z,72
2023-10-26T10:40:13.968Z,72
2023-10-26T10:44:57.784Z,72
2023-10-26T10:50:12.845Z,72
2023-10-26T10:55:05.234Z,72
2023-10-26T10:59:57.653Z,72
2023-10-26T11:05:06.109Z,72
2023-10-26T11:09:58.641Z,72
2023-10-26T11:14:58.019Z,72
2023-10-26T11:19:57.989Z,72
2023-10-26T11:24:57.903Z,72
2023-10-26T11:29:57.695Z,72
2023-10-26T11:34:57.756Z,72
2023-10-26T11:39:57.944Z,72
2023-10-26T11:44:57.983Z,72
2023-10-26T11:49:57.968Z,71
2023-10-26T11:54:57.989Z,71
2023-10-26T11:59:59.271Z,71
2023-10-26T12:04:58.045Z,71
2023-10-26T12:09:57.883Z,71
2023-10-26T12:14:58.044Z,71
2023-10-26T12:19:57.690Z,71
2023-10-26T12:24:57.924Z,71
2023-10-26T12:29:57.729Z,71
2023-10-26T12:34:57.692Z,71
2023-10-26T12:39:58.321Z,71
2023-10-26T12:44:58.203Z,71
2023-10-26T12:49:57.695Z,71
2023-10-26T12:54:57.950Z,71
2023-10-26T12:59:57.679Z,70
2023-10-26T13:04:57.845Z,70
2023-10-26T13:09:57.626Z,70
2023-10-26T13:14:58.114Z,69
2023-10-26T13:19:57.622Z,69
2023-10-26T13:24:57.863Z,69
2023-10-26T13:29:57.825Z,69
2023-10-26T13:34:57.836Z,69
2023-10-26T13:39:57.717Z,68
2023-10-26T13:44:57.797Z,68
2023-10-26T13:49:58.151Z,68
2023-10-26T13:54:57.916Z,68
2023-10-26T13:59:57.811Z,68
2023-10-26T14:04:57.916Z,68
2023-10-26T14:09:57.833Z,68
2023-10-26T14:14:57.719Z,68
2023-10-26T14:19:57.604Z,68
2023-10-26T14:24:57.941Z,68
2023-10-26T14:29:57.721Z,67
2023-10-26T14:34:57.767Z,67
2023-10-26T14:39:57.860Z,67
2023-10-26T14:44:57.746Z,67
2023-10-26T14:49:57.713Z,67
2023-10-26T14:54:57.516Z,67
2023-10-26T14:59:58.083Z,67
2023-10-26T15:04:58.015Z,67
2023-10-26T15:10:20.954Z,67
2023-10-26T15:14:57.674Z,67
2023-10-26T15:19:57.844Z,67
2023-10-26T15:24:57.647Z,67
2023-10-26T15:29:57.692Z,67
2023-10-26T15:34:58.028Z,67
2023-10-26T15:39:57.655Z,67
2023-10-26T15:44:57.542Z,67
2023-10-26T15:49:59.359Z,66
2023-10-26T15:54:57.738Z,66
2023-10-26T15:59:57.624Z,66
2023-10-26T16:04:57.556Z,66
2023-10-26T16:09:57.646Z,66
2023-10-26T16:14:57.662Z,66
2023-10-26T16:19:57.689Z,66
2023-10-26T16:24:57.965Z,65
2023-10-26T16:29:57.506Z,65
2023-10-26T16:34:57.554Z,65
2023-10-26T16:39:57.445Z,65
2023-10-26T16:44:57.602Z,65
2023-10-26T16:49:57.429Z,64
2023-10-26T16:54:57.709Z,64
2023-10-26T16:59:57.854Z,64
2023-10-26T17:04:57.485Z,64
2023-10-26T17:09:57.678Z,64
2023-10-26T17:14:57.779Z,64
2023-10-26T17:19:57.494Z,64
2023-10-26T17:24:57.705Z,64
2023-10-26T17:29:57.515Z,64
2023-10-26T17:34:57.636Z,64
2023-10-26T17:39:57.664Z,64
2023-10-26T17:44:57.655Z,64
2023-10-26T17:49:57.571Z,64
2023-10-26T17:54:58.720Z,64
2023-10-26T17:59:57.573Z,64
2023-10-26T18:04:57.425Z,64
2023-10-26T18:09:57.676Z,64
2023-10-26T18:14:57.705Z,64
2023-10-26T18:19:57.470Z,64
2023-10-26T18:24:57.542Z,64
2023-10-26T18:29:57.817Z,64
2023-10-26T18:34:57.848Z,64
2023-10-26T18:39:57.516Z,64
2023-10-26T18:44:57.528Z,64
2023-10-26T18:49:57.534Z,64
2023-10-26T18:54:57.401Z,64
2023-10-26T18:59:57.593Z,64
2023-10-26T19:04:57.900Z,64
2023-10-26T19:09:57.409Z,64
2023-10-26T19:14:57.853Z,64
2023-10-26T19:19:57.553Z,64
2023-10-26T19:24:57.497Z,64
2023-10-26T19:29:57.482Z,64
2023-10-26T19:34:57.345Z,64
2023-10-26T19:39:57.564Z,64
2023-10-26T19:44:57.641Z,64
2023-10-26T19:49:57.497Z,64
2023-10-26T19:54:57.509Z,64
2023-10-26T19:59:57.644Z,64
2023-10-26T20:04:57.773Z,64
2023-10-26T20:09:57.519Z,64
2023-10-26T20:14:57.340Z,64
2023-10-26T20:19:57.854Z,64
2023-10-26T20:24:57.568Z,64
2023-10-26T20:29:57.537Z,64
2023-10-26T20:34:57.549Z,64
2023-10-26T20:39:57.650Z,64
2023-10-26T20:44:57.253Z,64
2023-10-26T20:49:57.277Z,64
2023-10-26T20:54:57.812Z,64
2023-10-26T20:59:57.713Z,64
2023-10-26T21:04:57.297Z,64
2023-10-26T21:09:57.382Z,64
2023-10-26T21:14:57.297Z,64
2023-10-26T21:19:57.799Z,64
2023-10-26T21:24:57.445Z,64
2023-10-26T21:29:57.739Z,64
2023-10-26T21:34:57.502Z,64
2023-10-26T21:39:57.376Z,64
2023-10-26T21:44:57.381Z,64
2023-10-26T21:49:57.760Z,64
2023-10-26T21:54:57.576Z,64
2023-10-26T21:59:57.476Z,64
2023-10-26T22:04:57.467Z,64
2023-10-26T22:09:57.736Z,64
2023-10-26T22:14:57.718Z,64
2023-10-26T22:19:57.324Z,64
2023-10-26T22:24:57.847Z,64
2023-10-26T22:29:57.339Z,64
2023-10-26T22:34:57.399Z,64
2023-10-26T22:39:57.574Z,64
2023-10-26T22:44:57.414Z,64
2023-10-26T22:49:57.850Z,64
2023-10-26T22:54:59.751Z,64
2023-10-26T22:59:57.433Z,64
2023-10-26T23:04:57.378Z,64
2023-10-26T23:09:57.630Z,66
2023-10-26T23:14:57.347Z,66
2023-10-26T23:19:57.739Z,66
2023-10-26T23:24:57.316Z,66
2023-10-26T23:29:57.418Z,66
2023-10-26T23:34:57.228Z,66
2023-10-26T23:39:57.256Z,66
2023-10-26T23:44:57.523Z,66
2023-10-26T23:49:57.451Z,66
2023-10-26T23:54:57.504Z,66
2023-10-26T23:59:57.319Z,66
